Terminal Aerodrome Forecast
Issued by NWS El Paso, TX

Home | Current Version | Previous Version | Text Only | Print | Product List | Glossary On
Versions: 1 2 3 4 5 6 7 8 9 10 11 12 13 14 15 16 17
000
FTUS44 KEPZ 291732
TAFELP
TAF
KELP 291732Z 2918/3018 11012KT P6SM FEW060
     FM292000 12010G18KT P6SM VCTS SCT050CB BKN080
     FM300300 12010KT 6SM -TSRA BKN050CB BKN080
     FM301200 VRB06KT P6SM BKN250=

USA.gov is the U.S. government's official web portal to all federal, state and local government web resources and services.